Airfield :
LOGIN :

Register | Disclaimer

   EN    FR    IT 

 










Legend :    VFR   Marginal VFR   IFR   Intensive IFR   Very Intensive IFR
Visi :
Ceiling :
>= 8 km
>= 3000ft
5 to 8 km
1000 to 3000 ft
1500m to 5 km
500 to 1000 ft
800 to 1500m
200 to 500 ft
< 800m
< 200 ft
Symbols :   Thunderstorms  Fog  Heavy snow  Heavy precipitations  Wind > 20 kt
SIGMETs :     Misc.  Thunderstorms  Icing  Turbulence  Mountain Waves  Volcanic Ashes






- Airport Elevation : 93 ft
- IATA code : XRY


LEJR - Jerez

CURRENT METAR :
  • 081630Z 25007KT 210V280 CAVOK 34/19 Q1014

EXPIRED METARs :
  • 081600Z 26008KT 210V300 CAVOK 35/19 Q1015
  • 081530Z 24009KT 210V290 CAVOK 35/19 Q1015
  • 081500Z VRB07KT CAVOK 36/21 Q1015
  • 081430Z 23008KT 190V260 CAVOK 38/13 Q1015
  • 081400Z 24008KT 200V280 CAVOK 37/14 Q1015

TAF TAF LEJR
Valid from the 08 at 12:00 until the 09 at 12:00 UTC


081100Z 0812/0912 VRB03KT CAVOK TX38/0815Z TN20/0906Z
BECMG 0812/0814 20010KT
BECMG 0820/0823 VRB03KT



MET'MAP, your aeronautical weather chart ! - Copyright ORBIFLY December 2007 - Disclaimer

ORBIFLY MET'MAP TEAM :

Programming & Development : Alexandra Zaïnal
Concept & original design : Baudouin d'Aumeries
Assistance for programming : Marc-Olivier Méhu
Technical & hardware support : Manuel Goepfert

Contact : metmap@orbifly.com




SOURCES & CREDITS :

   NOAA